Pagrindinis puslapis
METAR-TAF:

METAR-TAF

Oro uostai :

Laupheim, Vokietija

platuma: 48-13N, ilguma: 009-55E, Aukštis: 538 m

Dabartinis oras

Ataskaita buvo paskelbta 49 minutes, ne 23:20 UTC
Ramus vėjas
Temperatūra 4°C
Drėgmė 81%
Slėgis 1016 hPa
Matomumas 10 km arba daugiau
Išsisklaidę debesys ne aukštis 6000 ft

METAR: ETHL 282320Z 00000KT 9999 SCT060 04/01 Q1016 BLU+

Laikas: 01:09 (00:09 UTC)


TAF: trūkstamas

Orai ataskaitas ir orų prognozės (METAR, TAF).

turimą stotys yra geltonos ir raudonos taškus žemėlapyje.

Perkelti pele per norėdami pamatyti stoties vardą.

Tada spustelėkite, norėdami matyti oro stebėjimo ir prognozės.

Norėdami pakeisti žemėlapį: spustelėkite ant žalios mygtukų su juodo kryžiaus žemyn,; žalią mygtuką su brūkšneliu, jei norite nutolinti; arba žalių rodyklių gretimoms žemėlapius.


METAR-TAF: